Mount Shasta, California
Current Conditions -  °F | °C
As of 3:56 AM on Monday 26 Jan 2015 (Local Time) from KMHS Reporting Station
Clear Clear  
Wind Chill:   Ceiling: Unl
Heat Index:   Visibility: 10mi
Dew Point:   Wind: 5mph
Humidity: 76%   Direction: 50°NE
Pressure: 30.12"   Gusts: NA
Location:  41.31°N, 122.31°W
Report Text: KMHS 261156Z AUTO 05004KT 10SM CLR 04/00 A3012 RMK AO2 SLP211 T00390000 10072 20039 58004
Loading
Personal Weather Stations






























Interactive Weather Map New forecast layout! Learn more

10-Day Weather Forecast

Advertisements
Track Severe Weather on mobile